Time;durP1;ratioP1;P1;durP2;ratioP2;P2;SDS_P1;SDS_P2;PMS_P1;PMS_P2;Temp;Humidity;BMP_temperature;BMP_pressure;BME280_temperature;BME280_humidity;BME280_pressure;Samples;Min_cycle;Max_cycle;Signal;HPM_P1;HPM_P2
2022/02/19 00:01:36;;;;;;;22.77;21.67;;;15.80;63.40;;;;;;5093697;28;20442;-44
2022/02/19 00:04:03;;;;;;;22.67;21.47;;;15.70;63.10;;;;;;5077014;28;20447;-46
2022/02/19 00:06:33;;;;;;;21.87;20.80;;;15.70;62.40;;;;;;5073569;28;20443;-46
2022/02/19 00:09:01;;;;;;;21.93;20.87;;;15.70;63.10;;;;;;5073312;28;20454;-46
2022/02/19 00:11:28;;;;;;;22.20;21.10;;;15.70;63.40;;;;;;5073342;28;20514;-45
2022/02/19 00:13:55;;;;;;;22.00;21.00;;;15.60;63.00;;;;;;5088698;28;20496;-46
2022/02/19 00:16:22;;;;;;;22.57;21.47;;;15.60;63.70;;;;;;5093639;28;20446;-46
2022/02/19 00:18:48;;;;;;;22.20;21.10;;;15.60;63.60;;;;;;5093393;28;20450;-45
2022/02/19 00:21:15;;;;;;;22.20;21.20;;;15.60;64.10;;;;;;5093537;28;20445;-43
2022/02/19 00:23:43;;;;;;;22.03;20.90;;;15.60;65.10;;;;;;5079579;28;20521;-43
2022/02/19 00:26:11;;;;;;;21.60;20.70;;;15.60;63.60;;;;;;5072992;28;20450;-42
2022/02/19 00:28:38;;;;;;;21.57;20.47;;;15.60;64.40;;;;;;5072948;28;20447;-45
2022/02/19 00:31:04;;;;;;;22.70;20.83;;;15.60;63.30;;;;;;5072881;28;20486;-45
2022/02/19 00:33:31;;;;;;;21.93;20.83;;;15.50;64.50;;;;;;5084282;28;20463;-46
2022/02/19 00:35:58;;;;;;;22.20;21.20;;;15.50;64.30;;;;;;5093319;28;20472;-46
2022/02/19 00:38:25;;;;;;;22.20;21.10;;;15.50;64.00;;;;;;5092862;28;20461;-42
2022/02/19 00:40:51;;;;;;;21.90;20.90;;;15.50;65.40;;;;;;5093188;28;20435;-43
2022/02/19 00:43:19;;;;;;;21.80;20.80;;;15.50;66.00;;;;;;5083060;28;20464;-48
2022/02/19 00:45:49;;;;;;;23.20;22.10;;;15.50;66.40;;;;;;5073024;28;20449;-45
2022/02/19 00:48:16;;;;;;;22.33;21.23;;;15.50;65.80;;;;;;5072529;28;20452;-43
2022/02/19 00:50:43;;;;;;;21.93;20.83;;;15.50;66.70;;;;;;5072515;28;20475;-49
2022/02/19 00:53:10;;;;;;;22.10;21.10;;;15.50;67.30;;;;;;5080296;28;20466;-48
2022/02/19 00:55:36;;;;;;;23.13;21.60;;;15.50;67.60;;;;;;5092584;28;20446;-50
2022/02/19 00:58:03;;;;;;;22.50;21.40;;;15.50;67.30;;;;;;5092599;28;20453;-42
2022/02/19 01:00:31;;;;;;;22.37;21.17;;;15.50;66.90;;;;;;5092776;28;20474;-43
2022/02/19 01:02:58;;;;;;;22.50;21.40;;;15.50;66.60;;;;;;5085948;28;20486;-45
2022/02/19 01:05:25;;;;;;;21.70;20.70;;;15.50;66.80;;;;;;5072477;28;20444;-49
2022/02/19 01:07:52;;;;;;;22.03;21.03;;;15.50;67.70;;;;;;5072174;28;20439;-43
2022/02/19 01:10:20;;;;;;;22.03;21.07;;;15.50;68.10;;;;;;5072164;28;20479;-48
2022/02/19 01:12:47;;;;;;;21.17;20.23;;;15.40;67.90;;;;;;5090521;28;20467;-45
2022/02/19 01:15:14;;;;;;;21.80;20.80;;;15.40;68.50;;;;;;5092492;28;20801;-43
2022/02/19 01:17:42;;;;;;;22.53;21.43;;;15.50;68.60;;;;;;5092311;28;20449;-43
2022/02/19 01:20:11;;;;;;;21.60;20.70;;;15.50;69.40;;;;;;5092272;28;20439;-43
2022/02/19 01:22:41;;;;;;;21.70;20.60;;;15.50;68.40;;;;;;5075009;28;20463;-48
2022/02/19 01:25:09;;;;;;;22.33;20.87;;;15.50;67.50;;;;;;5072018;28;20454;-42
2022/02/19 01:27:36;;;;;;;22.17;21.10;;;15.40;67.70;;;;;;5072050;28;20452;-44
2022/02/19 01:30:04;;;;;;;22.00;20.80;;;15.40;67.20;;;;;;5071588;28;20971;-42
2022/02/19 01:32:31;;;;;;;22.83;21.63;;;15.40;68.60;;;;;;5087362;28;20474;-43
2022/02/19 01:34:59;;;;;;;22.27;20.97;;;15.40;68.40;;;;;;5092117;28;20442;-43
2022/02/19 01:37:25;;;;;;;21.83;20.83;;;15.40;68.40;;;;;;5091620;28;20439;-42
2022/02/19 01:39:53;;;;;;;22.03;20.87;;;15.40;67.60;;;;;;5091818;28;20443;-44
2022/02/19 01:42:20;;;;;;;21.13;20.23;;;15.40;67.60;;;;;;5087498;28;21001;-43
2022/02/19 01:44:48;;;;;;;22.87;21.70;;;15.40;67.10;;;;;;5091656;28;20447;-43
2022/02/19 01:47:16;;;;;;;22.13;20.93;;;15.40;67.60;;;;;;5091957;28;20446;-43
2022/02/19 01:49:43;;;;;;;22.47;21.30;;;15.40;69.50;;;;;;5091715;28;20446;-42
2022/02/19 01:52:13;;;;;;;21.60;20.60;;;15.40;68.40;;;;;;5079168;28;20475;-43
2022/02/19 01:54:41;;;;;;;22.23;21.03;;;15.40;69.00;;;;;;5071575;28;20820;-43
2022/02/19 01:57:08;;;;;;;21.60;20.60;;;15.40;68.90;;;;;;5071702;28;20813;-44
2022/02/19 01:59:36;;;;;;;22.23;21.03;;;15.30;69.10;;;;;;5071444;28;20470;-46
2022/02/19 02:02:03;;;;;;;21.97;20.80;;;15.40;69.90;;;;;;5082825;28;20474;-42
2022/02/19 02:04:30;;;;;;;23.27;22.27;;;15.40;68.50;;;;;;5091799;28;20445;-41
2022/02/19 02:06:56;;;;;;;22.63;21.53;;;15.30;69.90;;;;;;5091790;28;20939;-41
2022/02/19 02:09:25;;;;;;;21.50;20.50;;;15.30;68.20;;;;;;5091512;28;20451;-42
2022/02/19 02:11:54;;;;;;;21.67;20.70;;;15.30;68.80;;;;;;5081897;28;20851;-41
2022/02/19 02:14:21;;;;;;;22.03;20.97;;;15.30;68.10;;;;;;5071506;28;20446;-41
2022/02/19 02:16:47;;;;;;;21.83;20.90;;;15.30;66.90;;;;;;5071380;28;20538;-41
2022/02/19 02:19:15;;;;;;;21.93;20.73;;;15.20;67.90;;;;;;5071226;28;20815;-41
2022/02/19 02:21:43;;;;;;;21.93;20.83;;;15.20;68.20;;;;;;5081271;28;20438;-42
2022/02/19 02:24:10;;;;;;;21.77;20.77;;;15.20;65.60;;;;;;5091578;28;20446;-42
2022/02/19 02:26:37;;;;;;;21.70;20.70;;;15.20;65.60;;;;;;5091514;28;20449;-41
2022/02/19 02:29:04;;;;;;;22.10;20.90;;;15.20;65.70;;;;;;5091285;28;20446;-41
2022/02/19 02:31:30;;;;;;;21.63;20.53;;;15.20;65.50;;;;;;5090804;28;20474;-42
2022/02/19 02:33:58;;;;;;;21.57;20.57;;;15.20;66.20;;;;;;5091542;28;20462;-41
2022/02/19 02:36:26;;;;;;;22.97;21.87;;;15.20;67.50;;;;;;5089761;28;20442;-41
2022/02/19 02:38:54;;;;;;;21.50;20.50;;;15.20;66.00;;;;;;5091110;28;20449;-42
2022/02/19 02:41:21;;;;;;;21.60;20.60;;;15.20;67.40;;;;;;5091114;28;20439;-41
2022/02/19 02:43:48;;;;;;;21.70;20.70;;;15.20;66.60;;;;;;5091286;28;20459;-41
2022/02/19 02:46:15;;;;;;;22.37;21.07;;;15.10;65.80;;;;;;5084916;28;20448;-41
2022/02/19 02:48:42;;;;;;;21.73;20.73;;;15.20;65.10;;;;;;5071337;28;20443;-41
2022/02/19 02:51:09;;;;;;;21.63;20.67;;;15.10;65.80;;;;;;5074772;28;21020;-42
2022/02/19 02:53:35;;;;;;;22.13;21.03;;;15.10;65.70;;;;;;5074738;28;20470;-42
2022/02/19 02:56:04;;;;;;;22.23;21.23;;;15.10;66.50;;;;;;5078719;28;20442;-43
2022/02/19 02:58:31;;;;;;;22.47;21.37;;;15.10;67.10;;;;;;5094520;28;20958;-42
2022/02/19 03:00:58;;;;;;;22.70;21.60;;;15.10;66.30;;;;;;5094963;28;20438;-41
2022/02/19 03:03:25;;;;;;;22.50;21.40;;;15.10;66.90;;;;;;5094694;28;21010;-41
2022/02/19 03:05:51;;;;;;;21.70;20.70;;;15.10;67.50;;;;;;5092271;28;20470;-41
2022/02/19 03:08:18;;;;;;;21.70;20.70;;;15.10;68.40;;;;;;5074283;28;20470;-41
2022/02/19 03:10:45;;;;;;;21.67;20.67;;;15.10;68.30;;;;;;5074357;28;20483;-42
2022/02/19 03:13:13;;;;;;;22.10;21.00;;;15.10;67.10;;;;;;5074411;28;20474;-42
2022/02/19 03:15:40;;;;;;;21.63;20.47;;;15.10;66.90;;;;;;5077441;28;20443;-41
2022/02/19 03:18:07;;;;;;;21.50;20.60;;;15.10;67.00;;;;;;5094452;28;20823;-42
2022/02/19 03:20:39;;;;;;;21.87;20.77;;;15.10;67.10;;;;;;5094655;28;20454;-41
2022/02/19 03:23:06;;;;;;;22.40;21.10;;;15.10;68.00;;;;;;5094474;28;21033;-43
2022/02/19 03:25:33;;;;;;;22.07;20.97;;;15.10;67.20;;;;;;5092283;28;20824;-41
2022/02/19 03:27:59;;;;;;;21.77;20.77;;;15.10;66.80;;;;;;5074115;28;20443;-41
2022/02/19 03:30:27;;;;;;;21.43;20.50;;;15.10;66.70;;;;;;5074037;28;20443;-41
2022/02/19 03:32:55;;;;;;;22.03;21.03;;;15.10;67.20;;;;;;5074145;28;20835;-41
2022/02/19 03:35:21;;;;;;;22.37;21.17;;;15.00;66.80;;;;;;5074161;28;20439;-42
2022/02/19 03:37:48;;;;;;;22.63;21.53;;;15.10;67.60;;;;;;5094000;28;20445;-41
2022/02/19 03:40:15;;;;;;;22.37;20.97;;;15.10;67.80;;;;;;5094259;28;20438;-41
2022/02/19 03:42:43;;;;;;;22.30;21.30;;;15.00;68.30;;;;;;5094155;28;20895;-41
2022/02/19 03:45:12;;;;;;;21.90;20.80;;;15.00;68.90;;;;;;5094222;28;20453;-42
2022/02/19 03:47:43;;;;;;;21.97;21.07;;;15.00;67.70;;;;;;5074766;28;20483;-40
2022/02/19 03:50:13;;;;;;;22.80;21.80;;;15.00;67.40;;;;;;5073912;28;20527;-41
2022/02/19 03:52:39;;;;;;;22.03;21.03;;;15.00;68.10;;;;;;5073662;28;20522;-41
2022/02/19 03:55:07;;;;;;;21.87;20.77;;;15.00;68.50;;;;;;5073812;28;20447;-41
2022/02/19 03:57:34;;;;;;;22.43;21.13;;;15.10;69.40;;;;;;5091637;28;20462;-41
2022/02/19 04:00:01;;;;;;;21.80;20.83;;;15.10;68.80;;;;;;5093238;28;20461;-41
2022/02/19 04:02:27;;;;;;;22.30;21.23;;;15.20;68.60;;;;;;5088319;28;20470;-41
2022/02/19 04:04:55;;;;;;;22.13;21.13;;;15.20;68.50;;;;;;5073527;28;20455;-41
2022/02/19 04:07:22;;;;;;;22.30;21.30;;;15.30;68.00;;;;;;5073407;28;20803;-42
2022/02/19 04:09:49;;;;;;;21.53;20.63;;;15.30;67.70;;;;;;5073254;28;20450;-42
2022/02/19 04:12:15;;;;;;;22.00;21.00;;;15.30;68.00;;;;;;5075084;28;20863;-44
2022/02/19 04:14:42;;;;;;;21.87;20.87;;;15.30;67.90;;;;;;5093563;28;20449;-41
2022/02/19 04:17:09;;;;;;;21.83;20.77;;;15.30;67.50;;;;;;5093566;28;20449;-41
2022/02/19 04:19:36;;;;;;;21.40;20.50;;;15.30;67.90;;;;;;5093260;28;20803;-42
2022/02/19 04:22:04;;;;;;;21.77;20.77;;;15.40;67.80;;;;;;5093061;28;20809;-42
2022/02/19 04:24:31;;;;;;;22.17;21.17;;;15.30;67.30;;;;;;5053211;28;20452;-41
2022/02/19 04:26:57;;;;;;;22.20;21.10;;;15.30;66.70;;;;;;5053174;28;20445;-42
2022/02/19 04:29:24;;;;;;;22.30;21.10;;;15.30;67.50;;;;;;5052925;28;20451;-41
2022/02/19 04:31:54;;;;;;;21.90;20.80;;;15.30;66.90;;;;;;5052946;28;20480;-42
2022/02/19 04:34:22;;;;;;;22.17;21.17;;;15.30;66.70;;;;;;5091625;28;20454;-43
2022/02/19 04:36:49;;;;;;;21.60;20.60;;;15.30;67.20;;;;;;5093174;28;20449;-41
2022/02/19 04:39:17;;;;;;;21.43;20.53;;;15.30;67.30;;;;;;5093112;28;20799;-41
2022/02/19 04:41:44;;;;;;;21.27;20.37;;;15.30;67.20;;;;;;5092995;28;20438;-41
2022/02/19 04:44:11;;;;;;;21.77;20.80;;;15.30;68.30;;;;;;5075057;28;20618;-41
2022/02/19 04:46:38;;;;;;;21.53;20.53;;;15.30;68.40;;;;;;5072747;28;20443;-41
2022/02/19 04:49:04;;;;;;;21.80;20.80;;;15.30;68.00;;;;;;5072453;28;20925;-41
2022/02/19 04:51:31;;;;;;;21.80;20.80;;;15.40;68.20;;;;;;5072477;28;20475;-41
2022/02/19 04:53:58;;;;;;;21.70;20.70;;;15.30;67.40;;;;;;5088068;28;20446;-41
2022/02/19 04:56:26;;;;;;;22.00;21.00;;;15.30;66.80;;;;;;5092775;28;20457;-41
2022/02/19 04:58:53;;;;;;;21.27;20.37;;;15.30;67.50;;;;;;5092590;28;20442;-44
2022/02/19 05:01:19;;;;;;;21.90;20.90;;;15.30;67.50;;;;;;5092698;28;20461;-41
2022/02/19 05:03:46;;;;;;;21.70;20.70;;;15.30;66.90;;;;;;5078187;28;20857;-41
2022/02/19 05:06:13;;;;;;;22.00;20.90;;;15.30;67.50;;;;;;5072221;28;20444;-42
2022/02/19 05:08:40;;;;;;;22.77;21.57;;;15.20;67.10;;;;;;5072122;28;20513;-42
2022/02/19 05:11:07;;;;;;;22.90;21.70;;;15.20;67.50;;;;;;5071640;28;20443;-41
2022/02/19 05:13:36;;;;;;;22.33;21.33;;;15.20;68.60;;;;;;5086249;28;20466;-41
2022/02/19 05:16:03;;;;;;;21.90;20.90;;;15.20;68.60;;;;;;5092173;28;20830;-41
2022/02/19 05:18:30;;;;;;;22.20;21.00;;;15.20;69.40;;;;;;5092183;28;20947;-41
2022/02/19 05:20:56;;;;;;;22.37;20.93;;;15.20;70.10;;;;;;5092356;28;20443;-41
2022/02/19 05:23:23;;;;;;;22.70;21.50;;;15.20;69.40;;;;;;5079169;28;20460;-42
2022/02/19 05:25:50;;;;;;;21.60;20.60;;;15.20;69.00;;;;;;5069934;28;21012;-41
2022/02/19 05:28:17;;;;;;;22.10;21.00;;;15.20;69.10;;;;;;5059880;28;20451;-41
2022/02/19 05:30:45;;;;;;;22.03;21.03;;;15.20;69.80;;;;;;5059902;28;20454;-42
2022/02/19 05:33:12;;;;;;;22.33;21.13;;;15.60;72.40;;;;;;5073133;28;20489;-41
2022/02/19 05:35:39;;;;;;;22.47;21.47;;;15.90;70.40;;;;;;5080292;28;20904;-42
2022/02/19 05:38:05;;;;;;;22.43;21.33;;;16.10;69.10;;;;;;5079718;28;20527;-43
2022/02/19 05:40:32;;;;;;;23.23;21.70;;;16.40;69.50;;;;;;5079834;28;20919;-42
2022/02/19 05:42:59;;;;;;;23.50;22.20;;;16.70;72.90;;;;;;5068243;28;20580;-43
2022/02/19 05:45:26;;;;;;;23.33;22.00;;;17.00;75.10;;;;;;5060119;28;20451;-41
2022/02/19 05:47:56;;;;;;;25.57;23.37;;;17.10;73.90;;;;;;5059637;28;20455;-45
2022/02/19 05:50:23;;;;;;;25.23;23.47;;;17.30;76.00;;;;;;5059876;28;20454;-43
2022/02/19 05:52:49;;;;;;;25.83;23.77;;;17.40;77.50;;;;;;5059581;28;20487;-41
2022/02/19 05:55:16;;;;;;;24.77;22.87;;;17.40;80.60;;;;;;5059549;28;20892;-41
2022/02/19 05:57:46;;;;;;;26.60;24.20;;;17.60;90.40;;;;;;5059707;28;20448;-41
2022/02/19 06:00:13;;;;;;;28.43;25.40;;;17.70;90.80;;;;;;5059493;28;20451;-44
2022/02/19 06:02:40;;;;;;;25.27;23.10;;;17.70;91.20;;;;;;5059980;28;20845;-42
2022/02/19 06:05:08;;;;;;;25.20;23.10;;;17.70;90.70;;;;;;5059546;28;20458;-42
2022/02/19 06:07:35;;;;;;;26.40;23.83;;;17.70;91.80;;;;;;5059575;28;20443;-42
2022/02/19 06:10:02;;;;;;;24.40;22.60;;;17.80;91.20;;;;;;5059338;28;20486;-42
2022/02/19 06:12:29;;;;;;;24.20;22.50;;;17.80;91.00;;;;;;5066323;28;20486;-42
2022/02/19 06:14:56;;;;;;;24.57;22.70;;;17.80;88.50;;;;;;5075730;28;20908;-45
2022/02/19 06:17:22;;;;;;;24.27;22.57;;;17.90;88.80;;;;;;5059362;28;20950;-43
2022/02/19 06:19:49;;;;;;;24.93;22.50;;;18.00;86.40;;;;;;5059063;28;20747;-40
2022/02/19 06:22:17;;;;;;;26.20;24.10;;;17.90;84.10;;;;;;5063608;28;20459;-42
2022/02/19 06:24:44;;;;;;;28.40;26.33;;;17.90;82.60;;;;;;5083648;28;20453;-42
2022/02/19 06:27:12;;;;;;;25.60;23.90;;;18.00;82.40;;;;;;5083768;28;20461;-43
2022/02/19 06:29:39;;;;;;;29.00;27.10;;;18.10;81.50;;;;;;5079118;28;20534;-42
2022/02/19 06:32:06;;;;;;;26.50;24.63;;;18.10;78.50;;;;;;5063181;28;20879;-45
2022/02/19 06:34:34;;;;;;;24.43;23.00;;;18.10;77.50;;;;;;5062958;28;20937;-42
2022/02/19 06:37:01;;;;;;;25.43;24.10;;;18.00;77.10;;;;;;5063118;28;20451;-42
2022/02/19 06:39:29;;;;;;;25.27;23.67;;;18.00;76.40;;;;;;5065228;28;20444;-43
2022/02/19 06:41:56;;;;;;;26.50;25.00;;;18.00;74.80;;;;;;5083535;28;20464;-42
2022/02/19 06:44:23;;;;;;;27.17;25.00;;;18.00;74.90;;;;;;5083550;28;20457;-42
2022/02/19 06:46:50;;;;;;;26.67;25.40;;;18.10;72.80;;;;;;5083116;28;20460;-44
2022/02/19 06:49:17;;;;;;;26.27;24.67;;;18.10;73.30;;;;;;5082300;28;21019;-45
2022/02/19 06:51:43;;;;;;;27.37;25.17;;;18.00;70.80;;;;;;5062987;28;20451;-42
2022/02/19 06:54:10;;;;;;;27.70;26.10;;;18.00;71.60;;;;;;5063033;28;21020;-42
2022/02/19 06:56:38;;;;;;;27.23;25.80;;;18.00;68.60;;;;;;5062713;28;20443;-42
2022/02/19 06:59:06;;;;;;;26.40;25.00;;;18.00;69.80;;;;;;5062837;28;20454;-42
2022/02/19 07:01:33;;;;;;;26.33;24.93;;;17.90;69.10;;;;;;5062659;28;20466;-42
2022/02/19 07:04:00;;;;;;;26.67;25.37;;;17.90;68.60;;;;;;5062611;28;21104;-42
2022/02/19 07:06:27;;;;;;;27.03;25.63;;;17.90;69.00;;;;;;5062697;28;20443;-43
2022/02/19 07:08:54;;;;;;;25.30;24.00;;;17.90;68.80;;;;;;5062832;28;20458;-43
2022/02/19 07:11:20;;;;;;;23.63;22.43;;;17.90;69.20;;;;;;5080923;28;20469;-42
2022/02/19 07:13:48;;;;;;;24.10;22.60;;;17.90;67.00;;;;;;5082392;28;20486;-42
2022/02/19 07:16:15;;;;;;;24.93;23.30;;;17.90;67.70;;;;;;5082654;28;20450;-43
2022/02/19 07:18:42;;;;;;;24.43;23.23;;;17.90;67.10;;;;;;5082935;28;20450;-43
2022/02/19 07:21:09;;;;;;;24.10;23.00;;;17.80;65.90;;;;;;5066731;28;20459;-43
2022/02/19 07:23:35;;;;;;;25.10;23.90;;;17.80;67.50;;;;;;5062174;28;20833;-43
2022/02/19 07:26:02;;;;;;;25.80;24.50;;;17.80;67.90;;;;;;5062272;28;20438;-42
2022/02/19 07:28:29;;;;;;;26.03;24.53;;;17.70;67.70;;;;;;5062477;28;20446;-43
2022/02/19 07:30:57;;;;;;;26.07;24.47;;;17.70;65.20;;;;;;5062501;28;20447;-44
2022/02/19 07:33:24;;;;;;;24.37;22.97;;;17.70;65.40;;;;;;5062087;28;20483;-44
2022/02/19 07:35:50;;;;;;;24.80;23.60;;;17.70;63.90;;;;;;5061263;28;20455;-42
2022/02/19 07:38:17;;;;;;;24.90;23.67;;;17.80;64.90;;;;;;5062103;28;20455;-43
2022/02/19 07:40:44;;;;;;;25.40;24.20;;;17.90;61.30;;;;;;5074439;28;20461;-47
2022/02/19 07:43:11;;;;;;;24.60;23.30;;;18.20;60.10;;;;;;5082143;28;20467;-42
2022/02/19 07:45:38;;;;;;;23.23;22.00;;;18.40;60.30;;;;;;5081172;28;20436;-43
2022/02/19 07:48:06;;;;;;;26.27;25.07;;;18.60;59.60;;;;;;5081994;28;20208;-44
2022/02/19 07:58:45;;;;;;;24.03;22.93;;;19.40;55.50;;;;;;5061858;28;20427;-44
2022/02/19 08:01:12;;;;;;;24.17;22.97;;;19.50;55.80;;;;;;5061905;28;20797;-43
2022/02/19 08:03:40;;;;;;;25.23;24.03;;;19.60;55.50;;;;;;5062015;28;20479;-42
2022/02/19 08:06:07;;;;;;;26.93;25.60;;;19.60;54.80;;;;;;5061324;28;20439;-42
2022/02/19 08:08:36;;;;;;;23.90;22.80;;;19.70;54.60;;;;;;5061189;28;20965;-42
2022/02/19 08:11:03;;;;;;;24.57;23.27;;;19.70;53.10;;;;;;5074823;28;21017;-43
2022/02/19 08:13:29;;;;;;;23.40;22.30;;;19.80;53.60;;;;;;5081642;28;21097;-42
2022/02/19 08:15:56;;;;;;;25.60;24.40;;;20.00;53.70;;;;;;5081521;28;20453;-45
2022/02/19 08:18:24;;;;;;;25.10;24.00;;;20.30;53.70;;;;;;5081235;28;20529;-43
2022/02/19 08:20:53;;;;;;;24.70;23.40;;;20.50;52.70;;;;;;5069423;28;20451;-43
2022/02/19 08:23:22;;;;;;;25.30;24.10;;;20.50;52.00;;;;;;5062860;28;20459;-42
2022/02/19 08:25:49;;;;;;;25.50;24.30;;;20.50;51.10;;;;;;5072992;28;20520;-42
2022/02/19 08:28:16;;;;;;;27.37;25.87;;;20.60;51.90;;;;;;5076621;28;20450;-45
2022/02/19 08:30:45;;;;;;;24.33;22.80;;;20.60;52.10;;;;;;5092837;28;20464;-42
2022/02/19 08:33:13;;;;;;;24.70;23.20;;;20.60;51.50;;;;;;5092961;28;20232;-42
2022/02/19 08:35:41;;;;;;;24.40;23.20;;;20.60;50.70;;;;;;5093390;28;20482;-42
2022/02/19 08:38:11;;;;;;;25.23;24.03;;;20.60;51.10;;;;;;5090106;28;20449;-43
2022/02/19 08:40:38;;;;;;;25.27;24.00;;;20.80;51.50;;;;;;5052921;28;20479;-44
2022/02/19 08:43:05;;;;;;;26.57;25.40;;;21.10;51.90;;;;;;5052986;28;20468;-44
2022/02/19 08:45:33;;;;;;;26.53;25.33;;;21.20;51.10;;;;;;5052907;28;20445;-44
2022/02/19 08:48:04;;;;;;;25.57;24.27;;;21.20;50.40;;;;;;5056133;28;20830;-43
2022/02/19 08:50:32;;;;;;;24.57;23.37;;;21.20;50.70;;;;;;5093353;28;20450;-44
2022/02/19 08:52:59;;;;;;;24.10;22.63;;;21.20;49.70;;;;;;5093341;28;20518;-45
2022/02/19 08:55:29;;;;;;;24.20;23.00;;;21.20;49.10;;;;;;5093404;28;20450;-44
2022/02/19 08:57:56;;;;;;;24.90;23.57;;;21.20;48.70;;;;;;5092428;28;20446;-44
2022/02/19 09:00:23;;;;;;;23.63;22.60;;;21.20;48.60;;;;;;5073032;28;20440;-47
2022/02/19 09:02:50;;;;;;;24.13;23.03;;;21.20;48.90;;;;;;5072700;28;20477;-45
2022/02/19 09:05:18;;;;;;;23.77;22.57;;;21.30;49.60;;;;;;5072569;28;20450;-44
2022/02/19 09:07:45;;;;;;;25.00;23.80;;;21.50;49.20;;;;;;5072510;28;20440;-47
2022/02/19 09:10:14;;;;;;;26.00;24.87;;;21.70;49.40;;;;;;5091991;28;20454;-45
2022/02/19 09:12:46;;;;;;;25.57;24.40;;;21.80;48.70;;;;;;5092904;28;20847;-46
2022/02/19 09:15:14;;;;;;;26.93;25.73;;;21.80;48.60;;;;;;5092794;28;20447;-45
2022/02/19 09:17:41;;;;;;;25.53;24.43;;;21.80;48.10;;;;;;5092992;28;20443;-45
2022/02/19 09:20:09;;;;;;;25.07;23.97;;;21.80;48.60;;;;;;5073771;28;20454;-44
2022/02/19 09:22:37;;;;;;;24.83;23.73;;;21.80;47.70;;;;;;5072415;28;20520;-44
2022/02/19 09:25:04;;;;;;;25.00;23.70;;;21.80;48.50;;;;;;5072649;28;20450;-45
2022/02/19 09:27:31;;;;;;;23.90;22.80;;;21.80;48.20;;;;;;5072840;28;20452;-44
2022/02/19 09:29:59;;;;;;;26.33;25.13;;;21.60;47.70;;;;;;5089003;28;20808;-44
2022/02/19 09:32:26;;;;;;;26.73;25.43;;;21.60;48.00;;;;;;5091891;28;20462;-45
2022/02/19 09:34:52;;;;;;;28.30;26.80;;;21.80;47.80;;;;;;5092468;28;20447;-43
2022/02/19 09:37:20;;;;;;;27.47;26.00;;;22.00;48.20;;;;;;5092265;28;20454;-44
2022/02/19 09:39:47;;;;;;;26.73;25.33;;;22.20;47.70;;;;;;5076701;28;20962;-43
2022/02/19 09:42:14;;;;;;;25.27;23.97;;;22.30;47.90;;;;;;5071705;28;20490;-44
2022/02/19 09:44:41;;;;;;;26.90;25.60;;;22.40;47.60;;;;;;5071949;28;20443;-44
2022/02/19 09:47:11;;;;;;;26.50;25.00;;;22.40;47.60;;;;;;5071815;28;20444;-44
2022/02/19 09:49:39;;;;;;;23.55;22.35;;;22.40;47.20;;;;;;5085084;28;20440;-42
2022/02/19 09:52:07;;;;;;;25.70;24.60;;;22.50;48.30;;;;;;5092370;28;20650;-44
2022/02/19 09:54:33;;;;;;;27.70;26.40;;;22.50;46.60;;;;;;5092199;28;20486;-44
2022/02/19 09:57:00;;;;;;;27.23;25.83;;;22.50;45.50;;;;;;5091870;28;20443;-44
2022/02/19 09:59:27;;;;;;;26.13;24.93;;;22.40;45.60;;;;;;5079984;28;20454;-44
2022/02/19 10:02:02;;;;;;;24.10;22.90;;;22.60;46.50;;;;;;5071216;28;20442;-43
2022/02/19 10:04:31;;;;;;;24.50;23.43;;;22.90;46.50;;;;;;5071899;28;20197;-43
2022/02/19 10:07:12;;;;;;;25.90;24.60;;;23.00;45.20;;;;;;5072014;28;20432;-45
2022/02/19 10:09:40;;;;;;;25.73;24.43;;;23.00;44.40;;;;;;5089360;28;20470;-44
2022/02/19 10:12:10;;;;;;;24.20;23.10;;;23.10;45.20;;;;;;5092017;28;20983;-44
2022/02/19 10:14:39;;;;;;;24.30;23.00;;;23.10;45.10;;;;;;5091783;28;20478;-44
2022/02/19 10:17:11;;;;;;;25.13;23.73;;;23.10;45.60;;;;;;5091846;28;21011;-45
2022/02/19 10:20:00;;;;;;;25.50;24.10;;;23.00;45.10;;;;;;5074040;28;20479;-44
2022/02/19 10:22:28;;;;;;;24.43;23.33;;;23.00;45.50;;;;;;5067234;28;20479;-44
2022/02/19 10:24:57;;;;;;;25.67;24.37;;;23.00;44.90;;;;;;5071734;28;20443;-43
2022/02/19 10:27:38;;;;;;;26.80;25.07;;;22.90;43.40;;;;;;5071633;28;20450;-43
2022/02/19 10:30:07;;;;;;;28.33;26.77;;;23.00;44.40;;;;;;5051540;28;20991;-43
2022/02/19 10:32:56;;;;;;;28.50;26.80;;;23.30;44.40;;;;;;5051375;28;20467;-44
2022/02/19 10:35:32;;;;;;;27.97;26.20;;;23.40;44.90;;;;;;5051273;28;20437;-44
2022/02/19 10:38:03;;;;;;;30.30;28.67;;;23.30;44.60;;;;;;5057912;28;20453;-44
2022/02/19 10:40:36;;;;;;;27.13;25.70;;;23.30;44.00;;;;;;5091099;28;20450;-44
2022/02/19 10:43:07;;;;;;;27.30;25.60;;;23.30;44.30;;;;;;5091063;28;20462;-44
2022/02/19 10:45:36;;;;;;;27.13;25.73;;;23.20;44.10;;;;;;5091150;28;20762;-44
2022/02/19 10:48:17;;;;;;;28.23;26.87;;;23.10;44.20;;;;;;5090785;28;20443;-44
2022/02/19 10:50:47;;;;;;;28.27;26.77;;;23.10;43.70;;;;;;5091826;28;20442;-43
2022/02/19 10:53:25;;;;;;;28.50;27.00;;;23.30;44.70;;;;;;5091658;28;20577;-45
2022/02/19 10:55:52;;;;;;;27.10;25.40;;;23.50;44.70;;;;;;5091657;28;20788;-44
2022/02/19 10:58:19;;;;;;;26.23;24.77;;;23.50;44.30;;;;;;5071678;28;20447;-43
2022/02/19 11:00:46;;;;;;;27.27;25.70;;;23.60;44.40;;;;;;5071358;28;20443;-43
2022/02/19 11:03:13;;;;;;;25.80;24.40;;;23.60;44.40;;;;;;5071485;28;20467;-44
2022/02/19 11:05:41;;;;;;;24.70;23.30;;;23.60;44.00;;;;;;5071428;28;20880;-44
2022/02/19 11:08:09;;;;;;;24.70;23.30;;;23.60;43.80;;;;;;5072463;28;20492;-44
2022/02/19 11:10:37;;;;;;;27.00;25.50;;;23.60;44.00;;;;;;5093384;28;20457;-44
2022/02/19 11:13:04;;;;;;;26.30;25.10;;;23.50;43.90;;;;;;5095179;28;21036;-44
2022/02/19 11:15:31;;;;;;;27.50;26.13;;;23.40;43.30;;;;;;5095154;28;20439;-44
2022/02/19 11:17:58;;;;;;;26.73;25.50;;;23.40;43.60;;;;;;5095050;28;20447;-44
2022/02/19 11:20:25;;;;;;;25.20;23.90;;;23.50;43.60;;;;;;5094538;28;20451;-43
2022/02/19 11:22:54;;;;;;;27.37;26.07;;;23.70;43.80;;;;;;5095000;28;20478;-44
2022/02/19 11:25:24;;;;;;;24.97;23.87;;;24.00;43.60;;;;;;5095242;28;20504;-44
2022/02/19 11:27:56;;;;;;;25.23;24.03;;;24.00;42.60;;;;;;5094269;28;20446;-45
2022/02/19 11:30:25;;;;;;;26.53;25.03;;;23.90;42.10;;;;;;5094461;28;20446;-44
2022/02/19 11:32:55;;;;;;;23.73;22.52;;;24.00;42.20;;;;;;5082648;28;20693;-43
2022/02/19 11:35:33;;;;;;;25.35;24.05;;;24.10;42.00;;;;;;5073800;28;20431;-43
2022/02/19 11:38:00;;;;;;;26.87;25.57;;;24.20;41.60;;;;;;5074656;28;20205;-47
2022/02/19 11:40:44;;;;;;;25.63;24.53;;;24.50;41.70;;;;;;5074565;28;20452;-48
2022/02/19 11:43:32;;;;;;;26.93;25.33;;;24.50;41.00;;;;;;5074211;28;20543;-45
2022/02/19 11:46:01;;;;;;;28.40;27.20;;;24.30;40.70;;;;;;5056292;28;20444;-47
2022/02/19 11:48:29;;;;;;;28.30;26.80;;;24.50;41.80;;;;;;5073932;28;20442;-43
2022/02/19 11:51:18;;;;;;;27.13;25.90;;;25.00;41.40;;;;;;5074455;28;20847;-48
2022/02/19 11:53:45;;;;;;;26.90;25.70;;;25.00;40.60;;;;;;5073814;28;20506;-47
